SWR4TH LSZH-LSGG
Flight info
| Callsign | SWR4TH |
|---|---|
| Flight time | N/A |
| Altitude | 18000 |
| Route | VEBIT T50 ROTOS Z669 ULMES |
| Aircraft | A320/M-SDE2E3FGIRWXY/L |
Departure
| Time | N/A |
|---|---|
| Airport | Zürich Airport (LSZH) |
Arrival
| Time | 2026-05-04 20:24 |
|---|---|
| Airport | Geneva International Airport (LSGG) |
| Time | Latitude | Longitude | Altitude | Speed | Heading |
|---|---|---|---|---|---|
| 2026-05-04 20:18 | 46.40684 | 6.35806 | 5792 ft | 216 kts | 224° |
| 2026-05-04 20:19 | 46.39639 | 6.34257 | 5493 ft | 215 kts | 225° |
| 2026-05-04 20:19 | 46.38597 | 6.32714 | 5221 ft | 213 kts | 225° |
| 2026-05-04 20:19 | 46.37565 | 6.31186 | 4949 ft | 212 kts | 225° |
| 2026-05-04 20:19 | 46.36535 | 6.29662 | 4655 ft | 211 kts | 225° |
| 2026-05-04 20:20 | 46.35523 | 6.28165 | 4371 ft | 204 kts | 225° |
| 2026-05-04 20:20 | 46.34561 | 6.26742 | 4134 ft | 193 kts | 225° |
| 2026-05-04 20:20 | 46.33638 | 6.25379 | 3856 ft | 187 kts | 225° |
| 2026-05-04 20:20 | 46.32738 | 6.24047 | 3586 ft | 183 kts | 225° |
| 2026-05-04 20:21 | 46.31855 | 6.22741 | 3325 ft | 180 kts | 225° |
| 2026-05-04 20:21 | 46.30977 | 6.21450 | 3079 ft | 174 kts | 225° |
| 2026-05-04 20:21 | 46.29384 | 6.19098 | 2602 ft | 150 kts | 226° |
| 2026-05-04 20:22 | 46.28668 | 6.18040 | 2419 ft | 145 kts | 226° |
| 2026-05-04 20:22 | 46.27970 | 6.17013 | 2223 ft | 142 kts | 226° |
| 2026-05-04 20:22 | 46.27278 | 6.16002 | 2029 ft | 141 kts | 226° |
| 2026-05-04 20:22 | 46.26593 | 6.14993 | 1844 ft | 140 kts | 226° |
| 2026-05-04 20:23 | 46.25912 | 6.13990 | 1664 ft | 140 kts | 226° |
| 2026-05-04 20:23 | 46.25232 | 6.12991 | 1475 ft | 139 kts | 226° |
| 2026-05-04 20:23 | 46.24566 | 6.12010 | 1373 ft | 127 kts | 226° |
| 2026-05-04 20:23 | 46.24053 | 6.11258 | 1376 ft | 81 kts | 225° |
| 2026-05-04 20:24 | 46.23773 | 6.10847 | 1382 ft | 41 kts | 224° |
| 2026-05-04 20:24 | 46.23627 | 6.10725 | 1384 ft | 19 kts | 185° |
| 2026-05-04 20:24 | 46.23502 | 6.10702 | 1388 ft | 16 kts | 198° |
| 2026-05-04 20:24 | 46.23410 | 6.10644 | 1389 ft | 13 kts | 208° |
| 2026-05-04 20:25 | 46.23363 | 6.10636 | 1400 ft | 4 kts | 118° |
| 2026-05-04 20:25 | 46.23358 | 6.10711 | 1393 ft | 12 kts | 94° |
| 2026-05-04 20:25 | 46.23286 | 6.10791 | 1393 ft | 20 kts | 190° |
| 2026-05-04 20:25 | 46.23172 | 6.10665 | 1395 ft | 20 kts | 227° |
| 2026-05-04 20:26 | 46.23084 | 6.10539 | 1398 ft | 12 kts | 223° |
| 2026-05-04 20:26 | 46.23051 | 6.10546 | 1400 ft | 3 kts | 142° |
| 2026-05-04 20:26 | 46.23035 | 6.10566 | 1396 ft | 2 kts | 137° |
| 2026-05-04 20:26 | 46.23032 | 6.10570 | 1396 ft | 0 kts | 136° |